Terminal Aerodrome Forecast
Issued by NWS Buffalo, NY

Current Version | Previous Version | Text Only | Print | Product List | Glossary On
Versions: 1 2 3 4 5 6 7 8 9 10 11 12 13 14 15 16 17 18 19 20 21 22 23 24 25
505
FTUS41 KBUF 191120
TAFBUF
TAF
KBUF 191120Z 1912/2012 21010G16KT P6SM SKC
     FM191400 22018G26KT P6SM SCT250
     FM191800 24022G32KT P6SM SCT050
     FM192300 25010KT P6SM SKC
     FM200600 26005KT P6SM SKC=

USA.gov is the U.S. government's official web portal to all federal, state and local government web resources and services.